createdAt,value
2023-01-30T00:01:43.485Z,19.37
2023-01-30T00:04:12.506Z,19.83
2023-01-30T00:06:40.717Z,19.20
2023-01-30T00:09:08.400Z,21.03
2023-01-30T00:11:35.568Z,21.73
2023-01-30T00:14:02.872Z,20.67
2023-01-30T00:16:30.032Z,20.50
2023-01-30T00:18:57.277Z,22.37
2023-01-30T00:21:24.465Z,21.40
2023-01-30T00:23:51.621Z,19.87
2023-01-30T00:26:18.764Z,21.07
2023-01-30T00:28:45.589Z,20.90
2023-01-30T00:31:12.398Z,20.70
2023-01-30T00:33:39.712Z,21.10
2023-01-30T00:36:07.265Z,20.33
2023-01-30T00:38:34.645Z,19.73
2023-01-30T00:41:01.937Z,23.80
2023-01-30T00:43:48.764Z,21.83
2023-01-30T00:46:36.650Z,22.37
2023-01-30T00:49:03.822Z,22.63
2023-01-30T00:51:31.029Z,21.87
2023-01-30T00:53:58.270Z,22.10
2023-01-30T00:56:25.471Z,21.50
2023-01-30T00:58:52.579Z,21.77
2023-01-30T01:01:19.735Z,22.50
2023-01-30T01:03:46.945Z,20.57
2023-01-30T01:06:14.129Z,21.50
2023-01-30T01:08:41.299Z,22.30
2023-01-30T01:11:08.261Z,19.87
2023-01-30T01:13:35.111Z,20.80
2023-01-30T01:16:01.935Z,21.20
2023-01-30T01:18:28.812Z,22.17
2023-01-30T01:20:55.579Z,20.10
2023-01-30T01:23:22.348Z,21.50
2023-01-30T01:25:49.146Z,21.73
2023-01-30T01:28:18.388Z,21.77
2023-01-30T01:30:45.569Z,21.83
2023-01-30T01:33:12.398Z,19.80
2023-01-30T01:35:42.570Z,20.77
2023-01-30T01:38:09.811Z,20.90
2023-01-30T01:40:55.754Z,21.70
2023-01-30T01:43:24.103Z,19.17
2023-01-30T01:46:23.911Z,21.47
2023-01-30T01:48:56.271Z,21.00
2023-01-30T01:51:27.864Z,18.90
2023-01-30T01:53:57.347Z,20.30
2023-01-30T01:56:24.594Z,22.00
2023-01-30T01:58:53.416Z,17.87
2023-01-30T02:01:20.665Z,20.17
2023-01-30T02:03:52.150Z,19.77
2023-01-30T02:06:20.025Z,20.47
2023-01-30T02:08:53.181Z,20.27
2023-01-30T02:11:30.982Z,19.83
2023-01-30T02:14:00.344Z,17.90
2023-01-30T02:16:27.198Z,19.03
2023-01-30T02:18:54.515Z,18.10
2023-01-30T02:21:58.478Z,19.97
2023-01-30T02:24:37.737Z,19.27
2023-01-30T02:27:33.007Z,18.93
2023-01-30T02:30:05.802Z,17.53
2023-01-30T02:32:32.513Z,19.10
2023-01-30T02:35:22.702Z,17.63
2023-01-30T02:38:16.701Z,18.80
2023-01-30T02:41:04.252Z,18.67
2023-01-30T02:43:44.306Z,17.50
2023-01-30T02:46:51.323Z,19.73
2023-01-30T02:49:42.337Z,19.07
2023-01-30T02:52:12.422Z,19.47
2023-01-30T02:54:39.302Z,18.53
2023-01-30T02:57:19.634Z,20.27
2023-01-30T02:59:50.574Z,20.03
2023-01-30T03:02:23.434Z,19.13
2023-01-30T03:05:02.547Z,20.20
2023-01-30T03:07:43.826Z,20.13
2023-01-30T03:10:13.303Z,18.40
2023-01-30T03:13:05.202Z,19.07
2023-01-30T03:16:01.399Z,19.37
2023-01-30T03:18:28.234Z,18.60
2023-01-30T03:20:55.280Z,19.17
2023-01-30T03:23:22.260Z,17.77
2023-01-30T03:25:49.444Z,16.03
2023-01-30T03:28:19.946Z,18.77
2023-01-30T03:30:46.887Z,18.23
2023-01-30T03:33:13.809Z,19.03
2023-01-30T03:35:41.380Z,18.13
2023-01-30T03:38:08.189Z,19.20
2023-01-30T03:40:35.094Z,17.30
2023-01-30T03:43:01.849Z,18.77
2023-01-30T03:45:28.664Z,19.23
2023-01-30T03:47:55.440Z,16.07
2023-01-30T03:50:22.263Z,17.67
2023-01-30T03:52:49.073Z,19.07
2023-01-30T03:55:16.825Z,18.50
2023-01-30T03:57:43.815Z,18.80
2023-01-30T04:00:11.535Z,19.37
2023-01-30T04:02:38.748Z,19.83
2023-01-30T04:05:06.498Z,19.63
2023-01-30T04:07:33.319Z,20.97
2023-01-30T04:10:00.105Z,21.00
2023-01-30T04:12:26.882Z,20.43
2023-01-30T04:14:53.711Z,18.77
2023-01-30T04:17:20.502Z,19.90
2023-01-30T04:19:47.317Z,20.67
2023-01-30T04:22:14.208Z,20.03
2023-01-30T04:24:41.121Z,20.73
2023-01-30T04:27:09.227Z,19.53
2023-01-30T04:29:36.185Z,19.13
2023-01-30T04:32:03.045Z,19.63
2023-01-30T04:34:29.840Z,18.83
2023-01-30T04:36:56.813Z,19.60
2023-01-30T04:39:23.698Z,18.30
2023-01-30T04:41:50.561Z,18.60
2023-01-30T04:44:17.461Z,19.57
2023-01-30T04:46:44.286Z,18.87
2023-01-30T04:49:11.328Z,19.63
2023-01-30T04:51:38.260Z,18.67
2023-01-30T04:54:06.599Z,17.93
2023-01-30T04:56:33.807Z,20.63
2023-01-30T04:59:00.982Z,19.23
2023-01-30T05:01:32.680Z,21.10
2023-01-30T05:04:00.116Z,18.73
2023-01-30T05:06:27.487Z,18.33
2023-01-30T05:08:55.945Z,18.50
2023-01-30T05:11:23.786Z,19.27
2023-01-30T05:13:51.232Z,19.70
2023-01-30T05:16:19.909Z,18.30
2023-01-30T05:18:46.752Z,19.00
2023-01-30T05:21:15.327Z,16.90
2023-01-30T05:23:42.648Z,18.73
2023-01-30T05:26:10.056Z,19.13
2023-01-30T05:28:36.907Z,19.23
2023-01-30T05:31:13.365Z,17.90
2023-01-30T05:33:41.179Z,17.23
2023-01-30T05:36:10.395Z,20.33
2023-01-30T05:38:37.145Z,16.30
2023-01-30T05:41:06.628Z,19.10
2023-01-30T05:43:34.505Z,19.73
2023-01-30T05:46:02.907Z,20.83
2023-01-30T05:48:30.281Z,22.00
2023-01-30T05:50:59.147Z,20.57
2023-01-30T05:53:29.673Z,19.47
2023-01-30T05:55:57.814Z,20.43
2023-01-30T05:58:25.028Z,18.77
2023-01-30T06:00:52.363Z,19.57
2023-01-30T06:03:19.557Z,17.63
2023-01-30T06:05:46.699Z,16.87
2023-01-30T06:08:13.468Z,17.30
2023-01-30T06:10:40.736Z,17.73
2023-01-30T06:13:07.564Z,16.30
2023-01-30T06:15:34.470Z,17.03
2023-01-30T06:18:01.208Z,17.50
2023-01-30T06:20:28.512Z,18.90
2023-01-30T06:22:55.720Z,18.97
2023-01-30T06:25:22.898Z,18.43
2023-01-30T06:27:52.414Z,17.00
2023-01-30T06:30:21.678Z,16.00
2023-01-30T06:32:51.783Z,15.87
2023-01-30T06:35:19.137Z,16.10
2023-01-30T06:37:46.704Z,14.57
2023-01-30T06:40:13.813Z,15.07
2023-01-30T06:42:45.899Z,15.20
2023-01-30T06:45:13.874Z,15.27
2023-01-30T06:47:51.261Z,16.50
2023-01-30T06:50:19.347Z,16.13
2023-01-30T06:52:48.622Z,15.30
2023-01-30T06:55:17.823Z,15.03
2023-01-30T06:57:45.660Z,14.37
2023-01-30T07:00:14.708Z,14.90
2023-01-30T07:02:41.991Z,14.40
2023-01-30T07:05:10.215Z,14.13
2023-01-30T07:07:38.084Z,13.23
2023-01-30T07:10:08.827Z,14.63
2023-01-30T07:12:36.974Z,13.70
2023-01-30T07:15:05.140Z,14.93
2023-01-30T07:17:32.108Z,13.87
2023-01-30T07:19:59.079Z,14.17
2023-01-30T07:22:26.243Z,13.70
2023-01-30T07:24:53.447Z,13.77
2023-01-30T07:27:20.607Z,13.10
2023-01-30T07:29:47.751Z,14.50
2023-01-30T07:32:16.368Z,12.47
2023-01-30T07:34:43.544Z,13.50
2023-01-30T07:37:11.007Z,13.87
2023-01-30T07:39:38.231Z,11.87
2023-01-30T07:42:05.571Z,12.43
2023-01-30T07:44:34.034Z,12.97
2023-01-30T07:47:01.716Z,12.50
2023-01-30T07:49:29.084Z,12.20
2023-01-30T07:51:56.256Z,11.33
2023-01-30T07:54:23.706Z,12.17
2023-01-30T07:56:50.851Z,11.10
2023-01-30T07:59:18.040Z,11.60
2023-01-30T08:01:45.289Z,10.70
2023-01-30T08:04:12.585Z,10.67
2023-01-30T08:06:39.878Z,10.17
2023-01-30T08:09:07.631Z,11.47
2023-01-30T08:11:35.429Z,9.43
2023-01-30T08:14:02.941Z,8.73
2023-01-30T08:16:32.422Z,8.93
2023-01-30T08:18:59.680Z,8.80
2023-01-30T08:21:26.877Z,6.87
2023-01-30T08:23:54.103Z,6.87
2023-01-30T08:26:21.340Z,5.30
2023-01-30T08:28:48.529Z,5.63
2023-01-30T08:31:16.308Z,5.77
2023-01-30T08:33:43.596Z,4.07
2023-01-30T08:36:10.967Z,5.20
2023-01-30T08:38:38.162Z,4.43
2023-01-30T08:41:09.698Z,4.00
2023-01-30T08:43:37.195Z,3.57
2023-01-30T08:46:04.616Z,3.73
2023-01-30T08:48:47.344Z,3.77
2023-01-30T08:51:14.885Z,3.87
2023-01-30T08:53:42.083Z,3.40
2023-01-30T08:56:09.282Z,3.53
2023-01-30T08:58:36.827Z,4.47
2023-01-30T09:01:07.933Z,3.23
2023-01-30T09:03:35.180Z,3.80
2023-01-30T09:06:02.480Z,3.10
2023-01-30T09:08:29.772Z,3.77
2023-01-30T09:11:00.614Z,3.17
2023-01-30T09:13:28.361Z,2.90
2023-01-30T09:15:55.559Z,3.00
2023-01-30T09:18:22.778Z,3.37
2023-01-30T09:20:52.048Z,2.97
2023-01-30T09:23:19.877Z,2.90
2023-01-30T09:25:47.312Z,3.70
2023-01-30T09:28:14.487Z,3.23
2023-01-30T09:30:41.819Z,4.10
2023-01-30T09:33:09.077Z,3.00
2023-01-30T09:35:36.284Z,3.83
2023-01-30T09:38:05.694Z,4.70
2023-01-30T09:40:33.401Z,2.90
2023-01-30T09:43:03.731Z,2.90
2023-01-30T09:45:33.657Z,3.43
2023-01-30T09:48:06.711Z,2.60
2023-01-30T09:50:39.887Z,2.83
2023-01-30T09:53:15.841Z,2.77
2023-01-30T09:55:43.408Z,3.20
2023-01-30T09:58:21.891Z,2.87
2023-01-30T10:00:50.521Z,2.60
2023-01-30T10:03:30.012Z,2.97
2023-01-30T10:05:59.938Z,3.83
2023-01-30T10:08:45.970Z,3.00
2023-01-30T10:11:33.864Z,4.40
2023-01-30T10:14:19.526Z,2.37
2023-01-30T10:17:05.566Z,3.10
2023-01-30T10:19:44.965Z,2.00
2023-01-30T10:22:23.759Z,2.77
2023-01-30T10:25:21.954Z,3.10
2023-01-30T10:27:59.571Z,3.37
2023-01-30T10:30:26.966Z,3.10
2023-01-30T10:32:55.979Z,3.03
2023-01-30T10:35:27.063Z,2.57
2023-01-30T10:38:01.713Z,2.70
2023-01-30T10:40:40.939Z,2.50
2023-01-30T10:43:17.361Z,2.27
2023-01-30T10:45:50.455Z,2.80
2023-01-30T10:48:28.699Z,1.90
2023-01-30T10:51:04.429Z,2.63
2023-01-30T10:53:38.526Z,2.07
2023-01-30T10:56:09.379Z,2.90
2023-01-30T10:58:45.656Z,3.53
2023-01-30T11:01:15.674Z,3.33
2023-01-30T11:03:43.551Z,3.10
2023-01-30T11:06:19.020Z,3.13
2023-01-30T11:08:46.328Z,2.60
2023-01-30T11:11:28.893Z,3.07
2023-01-30T11:14:09.334Z,2.83
2023-01-30T11:16:53.998Z,2.27
2023-01-30T11:19:23.831Z,2.57
2023-01-30T11:21:52.337Z,5.27
2023-01-30T11:24:22.636Z,2.93
2023-01-30T11:26:50.178Z,2.87
2023-01-30T11:29:24.807Z,2.63
2023-01-30T11:31:52.635Z,2.90
2023-01-30T11:34:21.169Z,2.47
2023-01-30T11:36:48.567Z,3.17
2023-01-30T11:39:19.867Z,2.00
2023-01-30T11:41:56.454Z,2.50
2023-01-30T11:44:30.776Z,3.13
2023-01-30T11:47:02.468Z,3.60
2023-01-30T11:49:47.127Z,2.90
2023-01-30T11:52:23.905Z,2.30
2023-01-30T11:54:52.380Z,2.20
2023-01-30T11:57:20.784Z,2.17
2023-01-30T11:59:50.648Z,2.13
2023-01-30T12:02:21.205Z,2.03
2023-01-30T12:04:51.120Z,2.27
2023-01-30T12:07:28.658Z,2.13
2023-01-30T12:09:57.039Z,2.30
2023-01-30T12:12:24.234Z,3.20
2023-01-30T12:14:53.057Z,1.90
2023-01-30T12:17:26.456Z,1.93
2023-01-30T12:20:13.609Z,2.47
2023-01-30T12:22:55.863Z,3.10
2023-01-30T12:25:26.659Z,3.00
2023-01-30T12:28:02.825Z,3.03
2023-01-30T12:30:36.255Z,1.97
2023-01-30T12:33:05.602Z,2.00
2023-01-30T12:36:05.150Z,2.77
2023-01-30T12:38:51.083Z,2.43
2023-01-30T12:41:36.546Z,3.30
2023-01-30T12:44:12.567Z,4.00
2023-01-30T12:46:42.818Z,2.27
2023-01-30T12:49:19.231Z,2.80
2023-01-30T12:51:49.356Z,2.13
2023-01-30T12:54:22.467Z,3.17
2023-01-30T12:56:49.649Z,2.67
2023-01-30T12:59:24.116Z,2.37
2023-01-30T13:02:03.696Z,2.73
2023-01-30T13:05:02.146Z,2.60
2023-01-30T13:08:03.146Z,2.90
2023-01-30T13:10:39.618Z,2.33
2023-01-30T13:13:09.663Z,2.57
2023-01-30T13:15:42.146Z,4.33
2023-01-30T13:18:14.698Z,2.40
2023-01-30T13:20:48.382Z,2.77
2023-01-30T13:23:47.847Z,3.50
2023-01-30T13:26:19.315Z,2.87
2023-01-30T13:28:48.233Z,3.30
2023-01-30T13:31:21.327Z,3.13
2023-01-30T13:33:50.129Z,2.97
2023-01-30T13:36:40.434Z,2.77
2023-01-30T13:39:27.860Z,2.70
2023-01-30T13:41:57.483Z,3.03
2023-01-30T13:44:30.799Z,2.70
2023-01-30T13:47:00.044Z,3.33
2023-01-30T13:49:39.051Z,3.33
2023-01-30T13:52:11.861Z,3.73
2023-01-30T13:54:51.828Z,3.13
2023-01-30T13:57:28.245Z,2.80
2023-01-30T14:00:01.383Z,3.10
2023-01-30T14:02:28.611Z,4.83
2023-01-30T14:04:56.840Z,3.53
2023-01-30T14:07:24.077Z,2.70
2023-01-30T14:09:51.285Z,2.93
2023-01-30T14:12:26.182Z,3.20
2023-01-30T14:14:59.536Z,3.40
2023-01-30T14:17:26.789Z,3.10
2023-01-30T14:20:15.918Z,3.10
2023-01-30T14:23:03.477Z,2.83
2023-01-30T14:25:30.788Z,3.00
2023-01-30T14:28:00.718Z,2.67
2023-01-30T14:30:34.012Z,3.80
2023-01-30T14:33:02.805Z,3.13
2023-01-30T14:35:31.192Z,2.70
2023-01-30T14:38:10.020Z,3.00
2023-01-30T14:40:38.568Z,2.83
2023-01-30T14:43:15.032Z,4.20
2023-01-30T14:45:48.106Z,2.83
2023-01-30T14:48:34.315Z,3.57
2023-01-30T14:51:17.459Z,2.40
2023-01-30T14:53:50.424Z,3.93
2023-01-30T14:56:18.056Z,3.17
2023-01-30T14:58:52.625Z,2.50
2023-01-30T15:01:19.877Z,3.37
2023-01-30T15:03:49.728Z,3.70
2023-01-30T15:06:17.367Z,3.30
2023-01-30T15:08:45.437Z,2.67
2023-01-30T15:11:19.043Z,3.37
2023-01-30T15:14:07.849Z,2.93
2023-01-30T15:16:37.955Z,3.03
2023-01-30T15:19:11.290Z,3.07
2023-01-30T15:21:44.679Z,2.23
2023-01-30T15:24:36.038Z,3.57
2023-01-30T15:27:14.344Z,3.43
2023-01-30T15:29:59.718Z,3.47
2023-01-30T15:32:27.800Z,3.70
2023-01-30T15:35:20.886Z,2.83
2023-01-30T15:37:48.200Z,3.70
2023-01-30T15:40:15.408Z,3.07
2023-01-30T15:42:49.839Z,3.67
2023-01-30T15:45:20.164Z,2.93
2023-01-30T15:48:00.612Z,3.30
2023-01-30T15:50:27.896Z,2.87
2023-01-30T15:52:56.616Z,3.73
2023-01-30T15:55:23.803Z,2.60
2023-01-30T15:57:53.316Z,3.77
2023-01-30T16:00:25.713Z,2.57
2023-01-30T16:02:53.487Z,3.60
2023-01-30T16:05:23.636Z,4.10
2023-01-30T16:07:53.257Z,4.20
2023-01-30T16:10:25.620Z,4.10
2023-01-30T16:12:56.132Z,3.60
2023-01-30T16:15:33.123Z,3.47
2023-01-30T16:18:26.788Z,3.83
2023-01-30T16:21:01.909Z,3.20
2023-01-30T16:23:32.844Z,4.00
2023-01-30T16:26:00.637Z,3.70
2023-01-30T16:28:28.609Z,3.40
2023-01-30T16:31:06.104Z,3.47
2023-01-30T16:33:37.035Z,2.70
2023-01-30T16:36:24.499Z,4.28
2023-01-30T16:38:52.427Z,4.10
2023-01-30T16:41:41.077Z,2.97
2023-01-30T16:44:08.257Z,3.63
2023-01-30T16:46:57.506Z,2.90
2023-01-30T16:49:38.661Z,3.80
2023-01-30T16:52:12.073Z,4.27
2023-01-30T16:54:41.458Z,4.33
2023-01-30T16:57:13.236Z,3.73
2023-01-30T16:59:40.588Z,3.23
2023-01-30T17:02:08.137Z,3.73
2023-01-30T17:04:40.357Z,4.13
2023-01-30T17:07:07.553Z,3.87
2023-01-30T17:09:36.900Z,3.07
2023-01-30T17:12:19.502Z,2.83
2023-01-30T17:14:47.353Z,3.40
2023-01-30T17:17:15.602Z,3.77
2023-01-30T17:19:42.807Z,3.40
2023-01-30T17:22:20.541Z,3.83
2023-01-30T17:24:47.748Z,3.47
2023-01-30T17:27:17.298Z,3.50
2023-01-30T17:29:48.373Z,3.77
2023-01-30T17:32:16.661Z,4.27
2023-01-30T17:34:44.170Z,3.33
2023-01-30T17:37:22.239Z,3.30
2023-01-30T17:39:49.691Z,2.93
2023-01-30T17:42:22.171Z,3.90
2023-01-30T17:44:49.685Z,3.90
2023-01-30T17:47:16.924Z,3.37
2023-01-30T17:49:44.104Z,4.10
2023-01-30T17:52:13.654Z,3.20
2023-01-30T17:54:40.886Z,3.43
2023-01-30T17:57:11.355Z,3.93
2023-01-30T17:59:38.509Z,2.93
2023-01-30T18:02:05.922Z,4.10
2023-01-30T18:04:33.064Z,3.50
2023-01-30T18:07:03.977Z,4.13
2023-01-30T18:09:32.077Z,4.10
2023-01-30T18:11:59.543Z,3.87
2023-01-30T18:14:26.687Z,3.53
2023-01-30T18:16:59.866Z,4.30
2023-01-30T18:19:28.214Z,3.77
2023-01-30T18:21:55.452Z,3.63
2023-01-30T18:24:22.738Z,3.73
2023-01-30T18:26:50.164Z,3.67
2023-01-30T18:29:17.460Z,4.57
2023-01-30T18:31:44.769Z,5.40
2023-01-30T18:34:12.241Z,4.40
2023-01-30T18:36:40.003Z,5.17
2023-01-30T18:39:07.209Z,3.53
2023-01-30T18:41:35.435Z,3.63
2023-01-30T18:44:03.970Z,3.63
2023-01-30T18:46:31.808Z,2.83
2023-01-30T18:49:02.721Z,2.73
2023-01-30T18:51:32.910Z,3.87
2023-01-30T18:54:01.314Z,2.77
2023-01-30T18:56:33.297Z,3.10
2023-01-30T18:59:03.854Z,3.40
2023-01-30T19:01:32.464Z,3.30
2023-01-30T19:04:04.841Z,3.30
2023-01-30T19:06:32.350Z,3.80
2023-01-30T19:09:00.219Z,3.10
2023-01-30T19:11:46.437Z,5.10
2023-01-30T19:14:14.667Z,3.27
2023-01-30T19:16:42.115Z,2.77
2023-01-30T19:19:09.599Z,3.30
2023-01-30T19:21:37.310Z,3.20
2023-01-30T19:24:06.624Z,3.00
2023-01-30T19:26:34.321Z,3.10
2023-01-30T19:29:01.645Z,4.50
2023-01-30T19:31:29.097Z,3.43
2023-01-30T19:33:58.257Z,3.93
2023-01-30T19:36:26.414Z,3.10
2023-01-30T19:38:53.963Z,3.87
2023-01-30T19:41:25.805Z,3.77
2023-01-30T19:43:53.823Z,3.20
2023-01-30T19:46:21.381Z,2.60
2023-01-30T19:48:49.348Z,4.23
2023-01-30T19:51:21.120Z,3.57
2023-01-30T19:53:52.486Z,3.30
2023-01-30T19:56:21.879Z,5.00
2023-01-30T19:58:52.501Z,3.90
2023-01-30T20:01:20.757Z,3.37
2023-01-30T20:03:48.544Z,4.73
2023-01-30T20:06:17.626Z,3.80
2023-01-30T20:08:45.540Z,3.87
2023-01-30T20:11:14.095Z,3.50
2023-01-30T20:13:42.556Z,4.83
2023-01-30T20:16:11.582Z,3.63
2023-01-30T20:18:39.248Z,3.27
2023-01-30T20:21:11.118Z,3.00
2023-01-30T20:23:38.797Z,3.43
2023-01-30T20:26:07.346Z,3.40
2023-01-30T20:28:34.816Z,3.53
2023-01-30T20:31:07.462Z,4.17
2023-01-30T20:33:34.734Z,2.53
2023-01-30T20:36:02.272Z,3.27
2023-01-30T20:38:32.927Z,3.00
2023-01-30T20:41:05.085Z,2.97
2023-01-30T20:43:36.492Z,2.37
2023-01-30T20:46:13.510Z,2.80
2023-01-30T20:48:41.261Z,2.50
2023-01-30T20:51:15.840Z,2.93
2023-01-30T20:53:54.867Z,3.17
2023-01-30T20:56:22.962Z,4.10
2023-01-30T20:58:50.364Z,3.33
2023-01-30T21:01:22.350Z,2.80
2023-01-30T21:03:50.616Z,3.20
2023-01-30T21:06:42.725Z,3.30
2023-01-30T21:09:13.463Z,3.60
2023-01-30T21:11:40.878Z,3.73
2023-01-30T21:14:08.336Z,3.33
2023-01-30T21:16:37.054Z,3.30
2023-01-30T21:19:06.063Z,3.07
2023-01-30T21:21:37.958Z,3.40
2023-01-30T21:24:08.142Z,3.50
2023-01-30T21:26:37.271Z,2.57
2023-01-30T21:29:06.217Z,3.63
2023-01-30T21:31:34.693Z,3.07
2023-01-30T21:34:02.227Z,2.70
2023-01-30T21:36:29.449Z,4.40
2023-01-30T21:39:15.265Z,4.93
2023-01-30T21:42:02.140Z,3.90
2023-01-30T21:44:30.574Z,2.93
2023-01-30T21:46:58.186Z,3.10
2023-01-30T21:49:25.812Z,3.47
2023-01-30T21:51:53.658Z,3.83
2023-01-30T21:54:21.215Z,3.67
2023-01-30T21:56:49.302Z,3.57
2023-01-30T21:59:16.581Z,3.30
2023-01-30T22:01:43.758Z,3.53
2023-01-30T22:04:13.828Z,4.00
2023-01-30T22:06:41.954Z,4.50
2023-01-30T22:09:11.746Z,4.63
2023-01-30T22:11:38.817Z,3.50
2023-01-30T22:14:05.676Z,3.50
2023-01-30T22:16:33.665Z,3.10
2023-01-30T22:19:04.863Z,4.07
2023-01-30T22:21:36.197Z,4.10
2023-01-30T22:24:05.540Z,3.67
2023-01-30T22:26:32.572Z,4.37
2023-01-30T22:29:01.367Z,3.57
2023-01-30T22:31:31.351Z,3.90
2023-01-30T22:33:58.211Z,4.13
2023-01-30T22:36:27.725Z,4.47
2023-01-30T22:38:54.823Z,4.17
2023-01-30T22:41:23.961Z,3.70
2023-01-30T22:43:55.289Z,4.03
2023-01-30T22:46:25.150Z,3.83
2023-01-30T22:48:52.468Z,4.53
2023-01-30T22:51:20.616Z,3.90
2023-01-30T22:53:52.803Z,4.33
2023-01-30T22:56:22.362Z,3.67
2023-01-30T22:58:49.337Z,3.07
2023-01-30T23:01:22.968Z,3.63
2023-01-30T23:03:55.186Z,4.23
2023-01-30T23:06:23.031Z,4.07
2023-01-30T23:08:50.768Z,4.90
2023-01-30T23:11:39.515Z,4.03
2023-01-30T23:14:18.159Z,4.03
2023-01-30T23:16:45.273Z,4.37
2023-01-30T23:19:13.556Z,4.77
2023-01-30T23:21:45.608Z,4.33
2023-01-30T23:24:18.867Z,5.03
2023-01-30T23:26:49.511Z,5.37
2023-01-30T23:29:18.849Z,4.57
2023-01-30T23:31:47.003Z,4.47
2023-01-30T23:34:17.132Z,4.53
2023-01-30T23:36:44.956Z,4.40
2023-01-30T23:39:13.471Z,4.40
2023-01-30T23:41:41.671Z,5.10
2023-01-30T23:44:09.264Z,5.17
2023-01-30T23:46:42.704Z,3.70
2023-01-30T23:49:12.321Z,4.33
2023-01-30T23:51:41.300Z,4.00
2023-01-30T23:54:08.852Z,4.50
2023-01-30T23:56:37.635Z,3.43
2023-01-30T23:59:05.264Z,4.53
